Time;durP1;ratioP1;P1;durP2;ratioP2;P2;SDS_P1;SDS_P2;PMS_P1;PMS_P2;Temp;Humidity;BMP_temperature;BMP_pressure;BME280_temperature;BME280_humidity;BME280_pressure;Samples;Min_cycle;Max_cycle;Signal;HPM_P1;HPM_P2
2022/09/12 00:01:18;;;;;;;6.13;3.17;;;;;;;15.66;68.34;100846.44;4804271;28;98009;-65
2022/09/12 00:03:45;;;;;;;5.60;3.00;;;;;;;15.65;68.64;100856.50;4771127;29;99311;-70
2022/09/12 00:06:18;;;;;;;6.30;2.65;;;;;;;15.63;68.50;100845.06;4774476;29;98080;-64
2022/09/12 00:08:44;;;;;;;4.43;2.85;;;;;;;15.64;68.59;100843.16;4774116;29;98361;-65
2022/09/12 00:11:11;;;;;;;7.03;3.28;;;;;;;15.60;68.41;100839.41;4778028;29;127626;-71
2022/09/12 00:13:38;;;;;;;4.88;3.13;;;;;;;15.58;68.47;100838.91;4786507;29;98188;-71
2022/09/12 00:16:05;;;;;;;7.43;3.53;;;;;;;15.57;68.61;100838.09;4785796;29;98041;-65
2022/09/12 00:18:31;;;;;;;4.30;2.80;;;;;;;15.54;68.48;100844.09;4772478;29;98151;-64
2022/09/12 00:21:00;;;;;;;5.20;3.22;;;;;;;15.52;68.37;100835.41;4786818;28;98493;-64
2022/09/12 00:23:27;;;;;;;7.72;3.40;;;;;;;15.49;68.68;100838.75;4792278;28;98292;-65
2022/09/12 00:25:53;;;;;;;5.38;2.63;;;;;;;15.47;68.61;100840.91;4755154;29;98208;-70
2022/09/12 00:28:19;;;;;;;8.40;3.22;;;;;;;15.44;68.48;100844.22;4775568;29;98269;-70
2022/09/12 00:30:48;;;;;;;7.18;3.47;;;;;;;15.42;68.48;100846.44;4761578;28;97993;-70
2022/09/12 00:33:15;;;;;;;6.55;3.47;;;;;;;15.39;68.71;100850.53;4787954;28;98303;-64
2022/09/12 00:35:46;;;;;;;4.93;3.35;;;;;;;15.35;68.20;100840.53;4784673;29;98295;-70
2022/09/12 00:38:13;;;;;;;6.88;3.55;;;;;;;15.32;68.68;100839.19;4787533;28;97838;-65
2022/09/12 00:40:40;;;;;;;8.43;3.30;;;;;;;15.30;68.36;100840.59;4775250;28;98201;-70
2022/09/12 00:43:12;;;;;;;4.90;2.80;;;;;;;15.26;68.47;100843.09;4787737;28;99215;-65
2022/09/12 00:45:41;;;;;;;7.97;3.45;;;;;;;15.25;68.49;100837.94;4750144;29;98012;-71
2022/09/12 00:48:18;;;;;;;6.43;3.28;;;;;;;15.23;68.23;100840.94;4759075;29;99704;-70
2022/09/12 00:50:44;;;;;;;5.13;3.10;;;;;;;15.20;68.34;100844.22;4774099;28;98111;-70
2022/09/12 00:53:11;;;;;;;5.25;3.08;;;;;;;15.17;68.62;100842.13;4751861;28;98172;-70
2022/09/12 00:55:40;;;;;;;7.75;3.55;;;;;;;15.15;68.18;100834.25;4776884;29;97864;-64
2022/09/12 00:58:14;;;;;;;7.13;3.05;;;;;;;15.11;68.36;100841.34;4784162;28;120812;-70
2022/09/12 01:00:41;;;;;;;6.22;3.67;;;;;;;15.10;68.68;100839.72;4785286;29;97910;-70
2022/09/12 01:03:12;;;;;;;5.57;3.35;;;;;;;15.09;68.37;100840.00;4803829;28;98127;-65
2022/09/12 01:05:43;;;;;;;6.30;3.20;;;;;;;15.08;68.31;100839.19;4777255;28;97973;-64
2022/09/12 01:08:11;;;;;;;5.82;3.25;;;;;;;15.05;68.34;100833.53;4800793;28;98407;-64
2022/09/12 01:10:38;;;;;;;5.75;3.22;;;;;;;15.01;68.47;100837.91;4800861;29;97948;-70
2022/09/12 01:13:06;;;;;;;6.20;3.42;;;;;;;14.95;68.25;100837.97;4771436;28;105259;-70
2022/09/12 01:15:32;;;;;;;5.75;3.65;;;;;;;14.92;68.25;100830.41;4773618;29;98064;-70
2022/09/12 01:18:29;;;;;;;7.25;3.70;;;;;;;14.88;68.23;100834.00;4775534;28;98545;-70
2022/09/12 01:21:20;;;;;;;6.85;3.70;;;;;;;14.83;68.41;100834.84;4807566;28;115668;-70
2022/09/12 01:24:23;;;;;;;6.70;3.70;;;;;;;14.79;68.19;100827.59;4783535;29;99468;-70
2022/09/12 01:27:23;;;;;;;5.85;3.60;;;;;;;14.75;68.61;100829.25;4808970;28;97894;-64
2022/09/12 01:30:24;;;;;;;6.20;3.85;;;;;;;14.70;68.07;100822.78;4808746;28;98760;-70
2022/09/12 01:33:23;;;;;;;6.35;3.60;;;;;;;14.67;68.67;100828.75;4785723;29;98555;-69
2022/09/12 01:36:33;;;;;;;8.00;3.72;;;;;;;14.64;68.50;100823.91;4789286;28;98409;-65
2022/09/12 01:39:25;;;;;;;5.80;3.28;;;;;;;14.61;68.25;100827.19;4799176;28;98535;-70
2022/09/12 01:42:18;;;;;;;5.97;3.47;;;;;;;14.60;68.50;100820.16;4807368;28;99240;-65
2022/09/12 01:45:09;;;;;;;6.93;3.80;;;;;;;14.59;68.43;100815.81;4809024;28;98437;-64
2022/09/12 01:47:57;;;;;;;4.82;3.63;;;;;;;14.58;68.33;100818.81;4790056;29;98023;-70
2022/09/12 01:50:31;;;;;;;7.18;3.90;;;;;;;14.59;68.44;100815.03;4768974;29;98009;-65
2022/09/12 01:53:08;;;;;;;7.50;3.90;;;;;;;14.57;68.70;100807.16;4770651;28;98164;-70
2022/09/12 01:55:59;;;;;;;7.60;3.67;;;;;;;14.58;68.57;100810.66;4784259;28;100126;-64
2022/09/12 01:58:40;;;;;;;6.50;3.60;;;;;;;14.55;68.19;100816.69;4798517;28;98226;-70
2022/09/12 02:01:22;;;;;;;5.43;3.30;;;;;;;14.54;68.50;100815.03;4787388;28;98094;-70
2022/09/12 02:04:15;;;;;;;6.38;3.63;;;;;;;14.51;68.62;100813.72;4765991;29;98133;-71
2022/09/12 02:06:51;;;;;;;6.43;3.47;;;;;;;14.46;68.46;100814.56;4779212;29;98168;-71
2022/09/12 02:09:37;;;;;;;7.82;4.00;;;;;;;14.45;68.39;100822.97;4781475;29;98313;-71
2022/09/12 02:12:03;;;;;;;7.18;4.05;;;;;;;14.45;68.77;100817.53;4800348;29;98023;-64
2022/09/12 02:14:46;;;;;;;6.72;3.88;;;;;;;14.46;68.56;100813.72;4783937;29;98173;-69
2022/09/12 02:17:14;;;;;;;8.82;4.30;;;;;;;14.46;69.07;100819.97;4762247;29;98493;-65
2022/09/12 02:19:45;;;;;;;7.78;3.95;;;;;;;14.48;69.06;100812.34;4775740;28;99204;-70
2022/09/12 02:22:15;;;;;;;8.15;4.07;;;;;;;14.49;68.90;100813.19;4780266;29;98889;-70
2022/09/12 02:24:44;;;;;;;8.65;4.75;;;;;;;14.52;68.99;100809.13;4786992;29;98245;-65
2022/09/12 02:27:20;;;;;;;9.35;4.30;;;;;;;14.50;68.78;100806.66;4756567;29;116549;-64
2022/09/12 02:29:46;;;;;;;9.77;4.65;;;;;;;14.50;68.99;100806.66;4772213;29;98581;-64
2022/09/12 02:33:00;;;;;;;11.23;4.78;;;;;;;14.49;68.80;100811.28;4763519;29;98086;-70
2022/09/12 02:35:42;;;;;;;8.80;4.25;;;;;;;14.48;68.51;100800.69;4786832;28;97844;-64
2022/09/12 02:38:32;;;;;;;7.30;3.90;;;;;;;14.49;68.63;100802.34;4788237;28;98495;-71
2022/09/12 02:40:59;;;;;;;8.82;4.97;;;;;;;14.49;68.81;100799.63;4787798;29;98351;-70
2022/09/12 02:43:25;;;;;;;9.45;5.43;;;;;;;14.50;68.78;100803.94;4787739;29;103904;-65
2022/09/12 02:45:51;;;;;;;10.00;5.55;;;;;;;14.49;69.18;100805.06;4755990;29;111007;-65
2022/09/12 02:48:30;;;;;;;10.75;5.65;;;;;;;14.49;68.98;100805.06;4777067;29;97864;-70
2022/09/12 02:50:57;;;;;;;9.70;5.28;;;;;;;14.52;69.23;100800.97;4778130;28;99249;-70
2022/09/12 02:53:23;;;;;;;9.20;4.95;;;;;;;14.53;69.23;100797.97;4783011;29;98193;-64
2022/09/12 02:55:50;;;;;;;12.32;5.75;;;;;;;14.53;69.08;100795.25;4782866;29;109544;-64
2022/09/12 02:58:19;;;;;;;13.52;5.40;;;;;;;14.52;69.12;100790.94;4776026;28;100088;-70
2022/09/12 03:04:19;;;;;;;11.10;5.45;;;;;;;14.54;68.89;100796.91;5048793;27;98382;-69
2022/09/12 03:07:11;;;;;;;10.45;5.10;;;;;;;14.52;69.28;100799.06;4983248;27;98520;-63
2022/09/12 03:09:45;;;;;;;9.05;4.80;;;;;;;14.52;68.82;100801.78;5006678;27;98844;-63
2022/09/12 03:12:46;;;;;;;8.88;5.13;;;;;;;14.53;68.89;100806.09;4998195;27;98648;-63
2022/09/12 03:15:24;;;;;;;7.32;4.70;;;;;;;14.53;69.37;100808.00;4966686;27;97922;-70
2022/09/12 03:18:37;;;;;;;9.98;4.82;;;;;;;14.52;69.28;100801.78;5019535;27;98648;-69
2022/09/12 03:21:15;;;;;;;7.17;4.53;;;;;;;14.49;69.36;100800.44;5007656;27;98487;-70
2022/09/12 03:24:15;;;;;;;8.57;4.85;;;;;;;14.50;69.17;100801.25;5002997;27;98385;-63
2022/09/12 03:26:57;;;;;;;10.65;4.38;;;;;;;14.48;69.18;100806.94;4991783;27;98269;-63
2022/09/12 03:29:23;;;;;;;8.35;4.10;;;;;;;14.49;69.44;100816.72;4997685;27;98017;-63
2022/09/12 03:31:54;;;;;;;8.32;3.88;;;;;;;14.50;69.37;100812.09;5001781;27;99977;-70
2022/09/12 03:34:22;;;;;;;6.20;3.70;;;;;;;14.51;69.32;100813.72;4978794;27;99099;-69
2022/09/12 03:36:48;;;;;;;7.32;3.88;;;;;;;14.50;69.57;100814.81;4982662;27;98018;-63
2022/09/12 03:39:14;;;;;;;6.50;3.92;;;;;;;14.50;69.55;100817.50;4997819;27;97912;-63
2022/09/12 03:41:41;;;;;;;7.15;3.95;;;;;;;14.50;69.76;100820.22;4962368;27;98068;-63
2022/09/12 03:44:07;;;;;;;6.82;4.30;;;;;;;14.50;69.56;100817.50;4962843;27;97890;-69
2022/09/12 03:46:33;;;;;;;5.53;3.95;;;;;;;14.51;69.81;100826.50;4996971;27;98198;-64
2022/09/12 03:49:00;;;;;;;6.00;3.72;;;;;;;14.49;69.63;100822.13;4984578;27;98097;-69
2022/09/12 03:51:26;;;;;;;6.82;3.88;;;;;;;14.48;69.19;100817.78;4967954;27;98109;-69
2022/09/12 03:53:52;;;;;;;8.45;4.22;;;;;;;14.50;69.84;100825.66;5014447;27;98627;-63
2022/09/12 03:56:18;;;;;;;8.25;3.50;;;;;;;14.51;69.89;100823.78;5012497;27;98470;-63
2022/09/12 03:58:45;;;;;;;6.13;3.55;;;;;;;14.50;69.94;100822.94;4985766;27;110481;-69
2022/09/12 04:01:13;;;;;;;5.72;3.40;;;;;;;14.50;69.95;100822.94;4996928;27;98078;-63
2022/09/12 04:03:44;;;;;;;7.07;3.58;;;;;;;14.50;69.97;100825.66;4992425;27;98114;-69
2022/09/12 04:06:13;;;;;;;6.82;4.00;;;;;;;14.51;69.73;100818.34;5000485;27;98888;-63
2022/09/12 04:08:40;;;;;;;5.85;3.28;;;;;;;14.51;69.91;100826.50;4983903;27;98203;-69
2022/09/12 04:11:11;;;;;;;6.35;3.35;;;;;;;14.51;69.94;100824.59;4980460;27;100436;-63
2022/09/12 04:13:39;;;;;;;8.85;3.85;;;;;;;14.51;69.66;100823.78;4976405;27;99023;-71
2022/09/12 04:16:06;;;;;;;5.57;3.38;;;;;;;14.52;70.04;100822.69;4971939;27;98485;-70
2022/09/12 04:18:32;;;;;;;4.72;2.75;;;;;;;14.48;69.85;100827.81;4955468;27;97992;-70
2022/09/12 04:21:04;;;;;;;6.50;3.22;;;;;;;14.49;69.59;100830.28;4979601;27;98066;-69
2022/09/12 04:23:33;;;;;;;4.87;2.70;;;;;;;14.49;69.80;100824.84;4999857;27;105306;-69
2022/09/12 04:26:01;;;;;;;4.43;2.60;;;;;;;14.49;69.61;100824.84;4983592;27;98078;-71
2022/09/12 04:28:27;;;;;;;5.65;2.45;;;;;;;14.51;69.52;100819.16;4976033;27;98187;-63
2022/09/12 04:30:54;;;;;;;6.50;2.47;;;;;;;14.51;69.57;100829.19;4964595;27;98190;-63
2022/09/12 04:33:22;;;;;;;4.95;3.03;;;;;;;14.52;69.53;100825.38;4966465;27;99577;-64
2022/09/12 04:35:49;;;;;;;6.13;2.85;;;;;;;14.53;69.91;100825.09;4973729;27;98623;-63
2022/09/12 04:38:17;;;;;;;6.60;2.97;;;;;;;14.53;69.75;100825.09;4970166;27;98541;-63
2022/09/12 04:40:44;;;;;;;7.32;3.17;;;;;;;14.54;69.49;100836.75;4967239;27;98993;-63
2022/09/12 04:43:11;;;;;;;5.47;3.17;;;;;;;14.54;69.50;100823.19;4995507;27;98718;-63
2022/09/12 04:45:37;;;;;;;5.60;2.72;;;;;;;14.58;69.85;100826.94;4967253;27;98191;-69
2022/09/12 04:48:04;;;;;;;5.72;3.00;;;;;;;14.64;69.89;100826.63;4954032;27;98819;-63
2022/09/12 04:50:30;;;;;;;5.43;3.30;;;;;;;14.71;69.24;100827.09;4977170;27;98040;-63
2022/09/12 04:52:57;;;;;;;5.55;3.00;;;;;;;14.78;69.52;100828.69;4973249;27;98403;-63
2022/09/12 04:55:25;;;;;;;5.45;2.92;;;;;;;14.84;69.36;100833.75;4976560;27;97904;-63
2022/09/12 04:57:54;;;;;;;5.80;3.10;;;;;;;14.87;69.30;100833.19;4974629;27;98248;-63
2022/09/12 05:00:21;;;;;;;5.30;3.05;;;;;;;14.91;69.35;100831.50;4991958;27;98090;-63
2022/09/12 05:02:48;;;;;;;8.32;2.72;;;;;;;14.95;69.44;100837.19;4964390;27;98396;-63
2022/09/12 05:05:16;;;;;;;4.38;2.85;;;;;;;15.00;69.15;100839.84;4948272;27;98099;-63
2022/09/12 05:07:43;;;;;;;5.38;2.83;;;;;;;15.03;69.01;100839.25;4964344;27;98050;-63
2022/09/12 05:10:11;;;;;;;5.10;3.00;;;;;;;15.06;69.04;100835.97;4982120;27;98327;-63
2022/09/12 05:12:38;;;;;;;5.13;3.10;;;;;;;15.10;69.33;100838.94;4934073;27;98381;-63
2022/09/12 05:15:05;;;;;;;4.88;2.83;;;;;;;15.12;69.20;100840.25;4948474;27;97988;-63
2022/09/12 05:17:31;;;;;;;4.88;2.90;;;;;;;15.15;69.53;100847.81;4955160;27;99016;-69
2022/09/12 05:19:57;;;;;;;5.55;3.47;;;;;;;15.17;69.12;100848.34;4951280;27;98520;-63
2022/09/12 05:22:24;;;;;;;7.68;3.42;;;;;;;15.20;68.84;100847.75;4950033;27;115612;-68
2022/09/12 05:24:50;;;;;;;4.45;3.40;;;;;;;15.20;69.11;100847.75;4965152;27;97900;-63
2022/09/12 05:27:16;;;;;;;5.35;3.60;;;;;;;15.22;69.08;100855.63;4961477;27;98023;-63
2022/09/12 05:29:42;;;;;;;6.43;3.40;;;;;;;15.23;68.81;100855.31;4965153;27;127122;-63
2022/09/12 05:32:08;;;;;;;5.00;3.40;;;;;;;15.29;68.80;100852.53;4969504;27;98052;-63
2022/09/12 05:34:34;;;;;;;5.50;3.22;;;;;;;15.31;68.93;100858.50;4964427;27;97887;-70
2022/09/12 05:37:01;;;;;;;4.70;2.85;;;;;;;15.33;68.93;100862.56;4962095;27;99272;-63
2022/09/12 05:39:27;;;;;;;7.30;3.80;;;;;;;15.34;68.66;100866.88;4954640;27;98010;-63
2022/09/12 05:41:54;;;;;;;6.10;2.75;;;;;;;15.34;68.74;100863.38;4967502;27;98180;-63
2022/09/12 05:44:20;;;;;;;5.65;3.00;;;;;;;15.34;68.31;100864.16;4946242;27;97826;-63
2022/09/12 05:46:52;;;;;;;6.15;3.00;;;;;;;15.30;68.49;100865.84;4969669;27;108258;-70
2022/09/12 05:49:20;;;;;;;6.50;3.37;;;;;;;15.32;68.63;100870.97;4970863;27;98386;-63
2022/09/12 05:51:46;;;;;;;5.38;3.83;;;;;;;15.32;68.51;100869.06;4937049;27;100412;-69
2022/09/12 05:54:19;;;;;;;5.53;2.88;;;;;;;15.34;68.31;100875.03;4983880;27;98066;-70
2022/09/12 05:56:45;;;;;;;7.03;3.25;;;;;;;15.36;68.32;100867.41;4953559;27;98026;-63
2022/09/12 05:59:19;;;;;;;4.40;3.20;;;;;;;15.40;68.18;100873.06;4968244;27;98056;-64
2022/09/12 06:01:46;;;;;;;5.45;2.97;;;;;;;15.46;68.27;100874.63;4989555;27;98132;-69
2022/09/12 06:04:13;;;;;;;4.47;2.95;;;;;;;15.47;67.99;100870.81;4965220;27;98097;-63
2022/09/12 06:06:43;;;;;;;6.38;3.63;;;;;;;15.57;67.61;100870.69;4958680;27;98004;-64
2022/09/12 06:09:10;;;;;;;6.53;4.00;;;;;;;15.63;67.79;100874.13;4976397;27;97947;-69
2022/09/12 06:11:39;;;;;;;4.60;2.78;;;;;;;15.64;67.62;100864.88;4974275;27;98192;-63
2022/09/12 06:14:05;;;;;;;5.35;3.17;;;;;;;15.72;67.60;100875.16;4986952;27;97973;-63
2022/09/12 06:16:32;;;;;;;6.45;3.55;;;;;;;15.84;67.18;100872.00;4992121;27;107125;-63
2022/09/12 06:19:01;;;;;;;4.97;3.58;;;;;;;15.85;67.47;100879.88;4966975;27;97883;-64
2022/09/12 06:21:30;;;;;;;8.57;3.38;;;;;;;15.88;67.23;100884.72;4949541;27;97939;-69
2022/09/12 06:23:57;;;;;;;6.03;2.78;;;;;;;15.96;67.01;100880.53;4961543;27;98278;-70
2022/09/12 06:26:24;;;;;;;4.88;2.70;;;;;;;16.06;66.71;100882.28;4988592;27;98562;-71
2022/09/12 06:28:55;;;;;;;6.18;3.15;;;;;;;16.07;66.79;100882.03;4960002;27;98458;-71
2022/09/12 06:31:30;;;;;;;5.25;2.95;;;;;;;16.13;66.72;100880.03;4965303;27;97940;-64
2022/09/12 06:33:58;;;;;;;5.78;3.67;;;;;;;16.23;66.40;100888.03;4970487;27;98198;-64
2022/09/12 06:36:28;;;;;;;5.03;3.70;;;;;;;16.31;66.18;100887.38;4975191;27;98251;-70
2022/09/12 06:38:55;;;;;;;3.67;2.70;;;;;;;16.43;66.13;100890.44;4975795;27;98753;-64
2022/09/12 06:41:22;;;;;;;5.22;2.58;;;;;;;16.63;65.68;100888.50;4969610;27;98932;-64
2022/09/12 06:43:49;;;;;;;5.05;2.90;;;;;;;16.63;65.82;100886.59;4985447;27;98162;-64
2022/09/12 06:46:16;;;;;;;3.97;2.65;;;;;;;16.60;66.07;100891.81;5010406;27;104125;-71
2022/09/12 06:48:42;;;;;;;4.43;3.08;;;;;;;16.61;65.89;100890.69;4981060;27;97996;-63
2022/09/12 06:51:14;;;;;;;5.88;2.65;;;;;;;16.66;65.87;100894.16;4954603;27;99251;-63
2022/09/12 06:53:40;;;;;;;5.15;3.28;;;;;;;16.73;65.81;100898.41;4976977;27;98053;-63
2022/09/12 06:56:12;;;;;;;4.15;3.15;;;;;;;16.76;65.79;100903.28;4984356;27;98072;-64
2022/09/12 06:58:39;;;;;;;6.35;3.25;;;;;;;16.80;65.63;100898.88;4980844;27;100367;-69
2022/09/12 07:01:11;;;;;;;4.45;2.92;;;;;;;16.81;65.72;100900.47;4992864;27;98159;-63
2022/09/12 07:03:38;;;;;;;6.07;3.03;;;;;;;16.86;65.79;100900.41;4969490;27;97753;-64
2022/09/12 07:06:11;;;;;;;4.07;2.75;;;;;;;16.96;65.35;100896.69;4982052;27;97794;-69
2022/09/12 07:08:38;;;;;;;4.93;3.05;;;;;;;17.14;65.00;100903.97;4973007;27;98100;-63
2022/09/12 07:11:19;;;;;;;5.75;3.35;;;;;;;17.26;64.81;100907.03;4987005;27;98880;-70
2022/09/12 07:13:48;;;;;;;4.38;2.97;;;;;;;17.14;65.07;100909.44;4991409;27;98304;-64
2022/09/12 07:16:15;;;;;;;5.40;2.95;;;;;;;17.17;65.12;100908.81;4974259;27;98090;-64
2022/09/12 07:18:42;;;;;;;5.88;3.10;;;;;;;17.25;65.11;100910.84;5006703;27;98158;-70
2022/09/12 07:21:13;;;;;;;4.95;3.05;;;;;;;17.37;64.92;100904.88;4970881;27;98284;-64
2022/09/12 07:23:42;;;;;;;4.00;3.00;;;;;;;17.46;64.63;100908.53;4988364;27;114567;-69
2022/09/12 07:26:15;;;;;;;4.82;2.67;;;;;;;17.53;64.86;100906.22;4990027;27;97907;-64
2022/09/12 07:28:42;;;;;;;4.72;2.92;;;;;;;17.58;64.53;100908.03;4987555;27;98104;-63
2022/09/12 07:31:13;;;;;;;4.43;2.67;;;;;;;17.67;64.38;100914.38;4963176;27;99701;-64
2022/09/12 07:33:40;;;;;;;2.77;2.20;;;;;;;17.83;63.86;100904.81;4970380;27;98896;-64
2022/09/12 07:36:11;;;;;;;3.17;2.13;;;;;;;17.87;64.03;100900.34;4974679;27;97926;-64
2022/09/12 07:38:38;;;;;;;4.93;2.55;;;;;;;18.02;63.83;100901.94;4989556;27;116239;-64
2022/09/12 07:41:25;;;;;;;4.20;2.65;;;;;;;17.83;64.40;100906.72;4975627;27;98795;-64
2022/09/12 07:43:53;;;;;;;5.00;2.83;;;;;;;17.78;64.35;100907.66;4968950;27;99223;-64
2022/09/12 07:46:19;;;;;;;4.30;2.58;;;;;;;17.79;64.41;100908.44;4976276;27;98141;-64
2022/09/12 07:48:52;;;;;;;5.57;2.90;;;;;;;17.82;64.35;100905.91;4983686;27;98624;-64
2022/09/12 07:51:24;;;;;;;5.00;2.90;;;;;;;17.86;64.24;100912.38;4978535;27;97825;-70
2022/09/12 07:53:51;;;;;;;5.65;2.78;;;;;;;17.96;63.91;100908.63;4982679;27;100465;-64
2022/09/12 07:56:18;;;;;;;4.10;2.50;;;;;;;18.06;63.66;100910.31;4972813;27;97849;-64
2022/09/12 07:58:44;;;;;;;3.15;2.17;;;;;;;18.07;63.70;100910.00;4980869;27;98921;-64
2022/09/12 08:01:13;;;;;;;4.50;2.67;;;;;;;18.34;63.20;100906.38;4969174;27;98313;-71
2022/09/12 08:03:46;;;;;;;4.15;2.45;;;;;;;18.50;62.80;100906.84;4968248;27;98164;-64
2022/09/12 08:06:20;;;;;;;4.65;2.63;;;;;;;18.56;63.07;100907.53;4969438;27;97869;-70
2022/09/12 08:08:47;;;;;;;4.05;2.47;;;;;;;18.56;63.05;100916.53;4951392;27;98410;-65
2022/09/12 08:11:17;;;;;;;4.20;2.58;;;;;;;18.81;62.82;100917.84;4940811;27;97936;-71
2022/09/12 08:13:44;;;;;;;5.95;2.58;;;;;;;19.25;61.39;100920.81;4979123;27;98466;-64
2022/09/12 08:16:13;;;;;;;5.38;2.88;;;;;;;19.53;61.25;100907.72;4962469;27;98284;-64
2022/09/12 08:18:40;;;;;;;4.70;2.40;;;;;;;19.53;61.27;100918.66;4958190;27;100254;-77
2022/09/12 08:21:18;;;;;;;4.25;2.10;;;;;;;19.49;61.83;100918.53;4948451;27;99175;-75
2022/09/12 08:23:45;;;;;;;5.38;2.22;;;;;;;19.51;61.67;100907.25;4943613;27;99439;-71
2022/09/12 08:26:12;;;;;;;3.67;1.90;;;;;;;19.56;61.66;100915.31;4944308;27;97926;-66
2022/09/12 08:28:44;;;;;;;3.33;1.75;;;;;;;19.58;61.46;100911.16;4941767;27;98100;-72
2022/09/12 08:31:15;;;;;;;;;;;;;;;19.88;61.09;100914.13;4935952;27;99814;-66
2022/09/12 08:33:42;;;;;;;2.83;1.85;;;;;;;20.01;60.51;100913.19;4945482;27;98151;-69
2022/09/12 08:36:21;;;;;;;2.85;1.73;;;;;;;20.37;59.99;100917.56;4957702;27;98598;-72
2022/09/12 08:39:04;;;;;;;3.10;1.63;;;;;;;21.29;58.56;100911.75;4959464;27;98324;-71
2022/09/12 08:41:44;;;;;;;4.00;1.88;;;;;;;21.94;57.52;100920.66;4948753;27;98580;-66
2022/09/12 08:45:01;;;;;;;2.97;1.52;;;;;;;21.76;58.69;100920.75;4962470;28;98244;-67
2022/09/12 08:47:37;;;;;;;2.10;1.08;;;;;;;22.25;57.90;100915.63;4973893;28;98257;-67
2022/09/12 08:50:14;;;;;;;3.60;1.63;;;;;;;22.33;57.85;100913.13;4946363;27;108668;-74
2022/09/12 08:52:48;;;;;;;2.65;1.25;;;;;;;21.91;58.81;100916.63;4973847;27;98366;-74
2022/09/12 08:55:38;;;;;;;2.38;1.52;;;;;;;21.71;58.88;100911.91;4981219;27;98092;-67
2022/09/12 08:58:21;;;;;;;2.80;1.45;;;;;;;22.35;57.58;100908.09;4964542;27;98684;-67
2022/09/12 09:01:07;;;;;;;2.60;1.30;;;;;;;23.84;54.50;100911.63;4949860;27;100448;-75
2022/09/12 09:04:14;;;;;;;3.10;1.02;;;;;;;25.62;52.59;100912.94;4977540;27;98819;-68
2022/09/12 09:07:15;;;;;;;1.88;0.80;;;;;;;27.68;49.67;100909.88;4964958;27;99739;-69
2022/09/12 09:10:18;;;;;;;1.73;0.80;;;;;;;29.40;47.93;100918.22;4965829;27;97999;-76
2022/09/12 09:12:55;;;;;;;1.98;0.68;;;;;;;30.23;47.71;100914.81;4968068;27;98657;-76
2022/09/12 09:15:48;;;;;;;1.75;0.50;;;;;;;29.95;48.21;100900.75;4940635;27;98611;-76
2022/09/12 09:18:27;;;;;;;1.40;0.57;;;;;;;29.25;49.21;100897.09;4962741;27;98008;-69
2022/09/12 09:21:12;;;;;;;1.70;0.65;;;;;;;29.78;48.27;100893.91;4942313;27;98076;-69
2022/09/12 09:23:49;;;;;;;1.23;0.40;;;;;;;30.83;46.86;100893.16;4945851;27;99645;-69
2022/09/12 09:26:35;;;;;;;1.20;0.52;;;;;;;31.59;44.93;100892.72;4943511;27;98202;-75
2022/09/12 09:29:16;;;;;;;0.90;0.50;;;;;;;32.73;43.07;100897.09;4960330;27;98221;-76
2022/09/12 09:31:50;;;;;;;1.33;0.50;;;;;;;33.50;41.50;100894.13;4949399;27;98085;-76
2022/09/12 09:34:20;;;;;;;1.00;0.50;;;;;;;34.32;41.36;100889.59;4956981;27;98772;-69
2022/09/12 09:37:12;;;;;;;1.10;0.43;;;;;;;35.73;39.51;100886.97;4963615;27;98183;-69
2022/09/12 09:40:17;;;;;;;1.05;0.45;;;;;;;36.99;38.64;100880.22;4969317;27;99239;-69
2022/09/12 09:43:08;;;;;;;1.42;0.40;;;;;;;37.84;37.52;100866.69;4978349;27;97914;-76
2022/09/12 09:45:34;;;;;;;0.77;0.40;;;;;;;38.18;35.74;100867.34;4972404;27;98161;-75
2022/09/12 09:48:29;;;;;;;2.20;0.40;;;;;;;38.94;36.12;100858.13;4943268;27;114404;-75
2022/09/12 09:50:58;;;;;;;0.63;0.30;;;;;;;37.10;37.04;100858.25;4968225;27;97879;-75
2022/09/12 09:53:52;;;;;;;0.83;0.30;;;;;;;35.79;38.20;100857.19;4946975;27;98773;-67
2022/09/12 09:56:41;;;;;;;2.25;0.20;;;;;;;35.22;39.75;100847.84;4979982;27;100177;-67
2022/09/12 09:59:28;;;;;;;0.52;0.20;;;;;;;36.38;38.08;100854.34;4929443;27;98253;-68
2022/09/12 10:02:02;;;;;;;0.50;0.20;;;;;;;37.15;35.62;100852.13;4956566;27;97811;-68
2022/09/12 10:04:38;;;;;;;0.43;0.20;;;;;;;37.96;35.62;100851.09;4948060;27;98728;-68
2022/09/12 10:07:04;;;;;;;0.73;0.30;;;;;;;38.76;33.64;100850.25;4979162;27;97784;-69
2022/09/12 10:09:35;;;;;;;0.30;0.17;;;;;;;38.55;34.74;100843.28;4946675;27;98394;-68
2022/09/12 10:12:25;;;;;;;0.40;0.10;;;;;;;35.64;36.31;100846.25;4974747;27;97770;-67
2022/09/12 10:15:02;;;;;;;0.20;0.10;;;;;;;35.55;37.00;100832.03;4947266;27;98250;-67
2022/09/12 10:17:42;;;;;;;0.30;0.10;;;;;;;33.57;37.94;100826.22;4960200;27;100205;-72
2022/09/12 10:20:43;;;;;;;0.32;0.10;;;;;;;32.46;39.26;100830.75;4982609;27;98214;-72
2022/09/12 10:23:22;;;;;;;0.30;0.08;;;;;;;33.10;37.23;100826.66;4960450;27;98362;-66
2022/09/12 10:25:53;;;;;;;0.45;0.10;;;;;;;32.34;37.34;100822.00;4973601;27;98007;-66
2022/09/12 10:28:25;;;;;;;;;;;;;;;33.30;37.83;100826.88;4969118;27;98136;-67
2022/09/12 10:31:01;;;;;;;0.38;0.10;;;;;;;34.33;35.46;100824.84;4964187;27;98044;-73
2022/09/12 10:33:28;;;;;;;0.77;0.10;;;;;;;34.24;34.88;100829.38;4929447;27;98035;-73
2022/09/12 10:35:55;;;;;;;0.32;0.10;;;;;;;32.41;36.90;100822.00;4939829;27;98103;-66
2022/09/12 10:38:24;;;;;;;1.52;0.20;;;;;;;31.48;37.84;100819.56;4977768;27;97966;-71
2022/09/12 10:41:06;;;;;;;0.40;0.10;;;;;;;31.62;37.75;100818.72;4949960;27;98172;-66
2022/09/12 10:43:32;;;;;;;0.47;0.10;;;;;;;31.22;37.47;100826.34;4946278;27;97900;-65
2022/09/12 10:46:21;;;;;;;0.30;0.10;;;;;;;31.99;36.79;100823.78;4976716;27;99413;-72
2022/09/12 10:49:24;;;;;;;0.30;0.10;;;;;;;32.00;36.89;100811.44;4960927;27;97988;-73
2022/09/12 10:51:53;;;;;;;0.30;0.10;;;;;;;34.06;33.81;100816.44;4966313;27;97809;-66
2022/09/12 10:54:23;;;;;;;0.32;0.10;;;;;;;34.35;33.77;100818.81;4933007;27;98059;-73
2022/09/12 10:57:08;;;;;;;0.40;0.20;;;;;;;33.62;35.57;100806.97;4962043;27;98469;-72
2022/09/12 10:59:57;;;;;;;0.22;0.10;;;;;;;34.31;34.35;100813.31;4963098;27;100110;-73
2022/09/12 11:02:56;;;;;;;0.28;0.10;;;;;;;35.02;33.86;100808.63;4966866;28;98066;-73
2022/09/12 11:05:31;;;;;;;0.25;0.10;;;;;;;35.72;32.17;100806.88;4977580;27;98242;-73
2022/09/12 11:08:28;;;;;;;0.28;0.10;;;;;;;35.46;33.63;100800.97;4978041;27;97907;-67
2022/09/12 11:11:36;;;;;;;0.20;0.10;;;;;;;33.15;36.09;100801.09;4973556;27;98169;-67
2022/09/12 11:14:36;;;;;;;0.43;0.10;;;;;;;31.80;37.26;100799.19;4977764;27;98250;-66
2022/09/12 11:17:19;;;;;;;0.40;0.10;;;;;;;31.25;37.24;100786.59;4963993;27;98663;-66
2022/09/12 11:20:20;;;;;;;0.35;0.10;;;;;;;29.84;38.49;100793.16;4937892;27;98396;-66
2022/09/12 11:23:15;;;;;;;0.30;0.10;;;;;;;28.84;39.81;100800.00;4976779;27;98351;-65
2022/09/12 11:25:57;;;;;;;0.50;0.10;;;;;;;28.42;39.27;100792.13;4991053;27;100075;-71
2022/09/12 11:29:02;;;;;;;0.40;0.10;;;;;;;27.71;40.02;100787.31;4963966;27;98902;-72
2022/09/12 11:32:18;;;;;;;0.30;0.10;;;;;;;29.52;37.26;100784.66;4948790;27;97924;-65
2022/09/12 11:34:54;;;;;;;0.28;0.10;;;;;;;28.43;38.50;100780.66;4983069;27;100153;-65
2022/09/12 11:37:59;;;;;;;0.43;0.20;;;;;;;28.12;39.27;100792.97;4978279;28;98055;-65
2022/09/12 11:40:46;;;;;;;0.95;0.10;;;;;;;27.08;40.41;100791.53;4979837;27;98101;-65
2022/09/12 11:43:23;;;;;;;0.40;0.10;;;;;;;26.45;41.09;100794.81;4964175;27;98109;-65
2022/09/12 11:45:50;;;;;;;0.28;0.10;;;;;;;26.01;41.37;100788.78;4968449;27;97801;-67
2022/09/12 11:48:58;;;;;;;0.77;0.10;;;;;;;25.78;41.86;100795.06;4935237;27;101368;-72
2022/09/12 11:51:58;;;;;;;0.60;0.20;;;;;;;25.63;41.99;100795.91;4967920;27;97874;-65
2022/09/12 11:54:41;;;;;;;0.50;0.20;;;;;;;25.91;41.19;100796.50;4972881;27;99516;-72
2022/09/12 11:57:40;;;;;;;0.88;0.20;;;;;;;25.85;41.60;100797.16;4944863;27;98136;-65
2022/09/12 12:00:27;;;;;;;1.08;0.10;;;;;;;25.54;41.83;100790.56;4962246;27;100173;-65
2022/09/12 12:03:05;;;;;;;0.50;0.10;;;;;;;25.46;41.91;100786.03;4939410;27;98128;-65
2022/09/12 12:06:06;;;;;;;0.43;0.10;;;;;;;25.73;41.49;100795.31;5010477;27;97903;-65